Share

Whatley, AL (36482)

4:41 AM CDT on April 24, 2014 (GMT -0500)
KALFRISC2 Elev 70 ft | 31.58 °N, 87.49 °W | Change Station

Current weather conditions updated 52 seconds ago

Overcast
Overcast
57.0 °F
Feels Like 57.0 °F
N
0.0
Wind Variable Wind from East
Gusts 0.0 mph
Sunrise 6:12 AM
Sunset 7:25 PM
Moon Waning Crescent

Today is forecast to be nearly the same temperature as yesterday.

Pressure 29.94 in
Visibility 5.0 miles
Clouds Overcast 7000 ft
Dew Point 56 °F
Humidity 97%
Rainfall 0.00 in
Snow Depth Not available.
UV 0 out of 16
Pollen 7.20 out of 12
Air Quality Not available.
Flu Activity Sporadic
METAR KGZH 240853Z AUTO 00000KT 5SM BR OVC070 16/14 A2994 RMK AO2 SLP136 T01610144 53001

More Conditions Fewer Conditions

Pressure 29.94 in
Visibility 5.0 miles
Clouds Overcast 7000 ft
Dew Point 56 °F
Humidity 97%
Rainfall 0.00 in
Snow Depth Not available.
UV 0 out of 16
Pollen 7.20 out of 12
Air Quality Not available.
Flu Activity Sporadic
METAR KGZH 240853Z AUTO 00000KT 5SM BR OVC070 16/14 A2994 RMK AO2 SLP136 T01610144 53001

More Conditions Fewer Conditions

10-Day Weather Forecast

Almanac

Astronomy

Apr. 24, 2014 Rise Set
Actual Time 6:12 AM CDT 7:25 PM CDT
Civil Twilight 5:46 AM CDT 7:51 PM CDT
Nautical Twilight 5:16 AM CDT 8:21 PM CDT
Astronomical Twilight 4:45 AM CDT 8:52 PM CDT
Moon 3:03 AM CDT 2:58 PM CDT
Length of Visible Light 14h 04m
Length of Day
13h 13m
Tomorrow will be 1m 44s longer.
Waning Crescent, 27% of the Moon is Illuminated
Today
Waning Crescent
Apr 29
New
May 6
First Quarter
May 14
Full
May 21
Last Quarter

Today's Extremes

State Highs State Lows

Community

  • Stacked
    Stacked
  • clouds approaching Red Sox Nation
    clouds approaching Red Sox Nation
  • Balance
    Balance
  • Nestled In
    Nestled In
  • Stunning Sunrise
    Stunning Sunrise

WunderPhotos

Upload Photos

1,704,575 photos uploaded!

WunderBlogs® & News

Nearby

Snow Depth

Station Depth Elevation
No new snow has been reported.

Coastal Water Temperatures

Place Temperature
No Stations Reporting

Earthquake Activity

City Distance Mag. Time & Date
No recent earthquake activity has been reported nearby.
Minimum magnitude displayed is 2.5.

Nearby Weather Stations

Station Location Temp. Dew Point Humidity Wind Precip. Elev Updated Type
Perdue Hill, AL 57.0 °F 56 °F 97% East  at  0.0 mph 0.00 in / hr 70 ft 4:40 AM CDT Normal
Belview Circle, Jackson, AL 62.0 °F 62 °F 100% NE  at  0.0 mph 0.00 in / hr 381 ft 4:41 AM CDT Rapid Fire
Jackson, AL, Jackson, AL 59.8 °F 59 °F 96% NE  at  0.0 mph 0.00 in / hr 53 ft 4:41 AM CDT Rapid Fire

Show More Stations Show Fewer Stations

What do you think?

We're not finished. Please let us know what you like, what you don't like, and what you are still missing.